createdAt,value
2022-11-05T00:01:18.831Z,7.09
2022-11-05T00:04:18.811Z,7.09
2022-11-05T00:07:18.797Z,7.1
2022-11-05T00:10:18.808Z,7.09
2022-11-05T00:13:18.816Z,7.06
2022-11-05T00:16:18.829Z,7.05
2022-11-05T00:19:18.820Z,7.01
2022-11-05T00:22:18.847Z,6.96
2022-11-05T00:25:18.835Z,7.01
2022-11-05T00:28:18.834Z,6.97
2022-11-05T00:31:18.844Z,6.98
2022-11-05T00:34:18.843Z,6.94
2022-11-05T00:37:18.847Z,6.94
2022-11-05T00:40:18.880Z,6.95
2022-11-05T00:43:18.859Z,6.9
2022-11-05T00:46:18.867Z,6.92
2022-11-05T00:49:18.869Z,6.92
2022-11-05T00:52:18.873Z,6.92
2022-11-05T00:55:18.886Z,6.92
2022-11-05T00:58:19.014Z,6.93
2022-11-05T01:01:19.027Z,6.89
2022-11-05T01:04:18.906Z,6.89
2022-11-05T01:07:18.906Z,6.9
2022-11-05T01:10:18.917Z,6.9
2022-11-05T01:13:19.312Z,6.91
2022-11-05T01:16:18.956Z,6.87
2022-11-05T01:19:18.933Z,6.88
2022-11-05T01:22:18.949Z,6.87
2022-11-05T01:25:18.951Z,6.88
2022-11-05T01:28:19.027Z,6.83
2022-11-05T01:31:18.986Z,6.83
2022-11-05T01:34:19.000Z,6.83
2022-11-05T01:37:18.983Z,6.79
2022-11-05T01:40:18.993Z,6.79
2022-11-05T01:43:19.000Z,6.79
2022-11-05T01:46:19.027Z,6.79
2022-11-05T01:49:19.013Z,6.81
2022-11-05T01:52:19.048Z,6.81
2022-11-05T01:55:19.030Z,6.81
2022-11-05T01:58:19.042Z,6.82
2022-11-05T02:01:19.198Z,6.77
2022-11-05T02:04:19.057Z,6.77
2022-11-05T02:07:19.065Z,6.78
2022-11-05T02:10:19.092Z,6.78
2022-11-05T02:13:19.079Z,6.73
2022-11-05T02:16:19.090Z,6.74
2022-11-05T02:19:19.098Z,6.74
2022-11-05T02:22:19.107Z,6.75
2022-11-05T02:25:19.117Z,6.75
2022-11-05T02:28:19.149Z,6.75
2022-11-05T02:31:19.134Z,6.75
2022-11-05T02:34:19.147Z,6.75
2022-11-05T02:37:19.153Z,6.75
2022-11-05T02:40:19.204Z,6.76
2022-11-05T02:43:19.173Z,6.75
2022-11-05T02:46:19.209Z,6.71
2022-11-05T02:49:19.189Z,6.71
2022-11-05T02:52:19.192Z,6.72
2022-11-05T02:55:19.214Z,6.71
2022-11-05T02:58:19.220Z,6.72
2022-11-05T03:01:19.295Z,6.72
2022-11-05T03:04:19.274Z,6.72
2022-11-05T03:07:19.249Z,6.71
2022-11-05T03:10:19.262Z,6.67
2022-11-05T03:13:19.273Z,6.61
2022-11-05T03:16:19.283Z,6.6
2022-11-05T03:19:19.296Z,6.6
2022-11-05T03:22:19.328Z,6.62
2022-11-05T03:25:19.317Z,6.62
2022-11-05T03:28:19.331Z,6.62
2022-11-05T03:31:19.342Z,6.62
2022-11-05T03:34:19.355Z,6.57
2022-11-05T03:37:19.366Z,6.57
2022-11-05T03:40:19.400Z,6.51
2022-11-05T03:43:19.390Z,6.51
2022-11-05T03:46:19.399Z,6.51
2022-11-05T03:49:19.406Z,6.51
2022-11-05T03:52:19.423Z,6.52
2022-11-05T03:55:19.439Z,6.53
2022-11-05T03:58:19.482Z,6.53
2022-11-05T04:01:19.531Z,6.49
2022-11-05T04:04:19.479Z,6.49
2022-11-05T04:07:19.489Z,6.49
2022-11-05T04:10:19.511Z,6.49
2022-11-05T04:13:19.522Z,6.49
2022-11-05T04:16:19.563Z,6.45
2022-11-05T04:19:23.724Z,6.5
2022-11-05T04:22:19.561Z,6.46
2022-11-05T04:25:19.587Z,6.46
2022-11-05T04:28:19.595Z,6.46
2022-11-05T04:31:19.608Z,6.46
2022-11-05T04:34:19.653Z,6.51
2022-11-05T04:37:19.640Z,6.51
2022-11-05T04:40:19.648Z,6.51
2022-11-05T04:43:19.987Z,6.52
2022-11-05T04:46:19.683Z,6.52
2022-11-05T04:49:19.707Z,6.52
2022-11-05T04:52:19.733Z,6.53
2022-11-05T04:55:19.724Z,6.53
2022-11-05T04:58:19.740Z,6.48
2022-11-05T05:01:19.820Z,6.48
2022-11-05T05:04:19.772Z,6.43
2022-11-05T05:07:19.786Z,6.42
2022-11-05T05:10:19.827Z,6.41
2022-11-05T05:13:19.815Z,6.41
2022-11-05T05:16:19.828Z,6.4
2022-11-05T05:19:19.843Z,6.46
2022-11-05T05:22:19.857Z,6.47
2022-11-05T05:25:19.875Z,6.52
2022-11-05T05:28:19.913Z,6.53
2022-11-05T05:31:19.906Z,6.53
2022-11-05T05:34:19.926Z,6.53
2022-11-05T05:37:19.945Z,6.49
2022-11-05T05:40:19.964Z,6.49
2022-11-05T05:43:19.972Z,6.49
2022-11-05T05:46:20.010Z,6.53
2022-11-05T05:49:20.005Z,6.53
2022-11-05T05:52:20.045Z,6.5
2022-11-05T05:55:20.030Z,6.55
2022-11-05T05:58:20.054Z,6.54
2022-11-05T06:01:20.298Z,6.55
2022-11-05T06:04:20.111Z,6.55
2022-11-05T06:07:20.086Z,6.5
2022-11-05T06:10:20.122Z,6.5
2022-11-05T06:13:20.117Z,6.45
2022-11-05T06:16:20.134Z,6.4
2022-11-05T06:19:20.141Z,6.44
2022-11-05T06:22:20.188Z,6.43
2022-11-05T06:25:20.167Z,6.44
2022-11-05T06:28:20.181Z,6.44
2022-11-05T06:31:20.319Z,6.45
2022-11-05T06:34:20.209Z,6.5
2022-11-05T06:37:20.223Z,6.5
2022-11-05T06:40:20.258Z,6.55
2022-11-05T06:43:20.245Z,6.5
2022-11-05T06:46:20.254Z,6.51
2022-11-05T06:49:20.266Z,6.55
2022-11-05T06:52:20.278Z,6.55
2022-11-05T06:55:20.295Z,6.6
2022-11-05T06:58:20.330Z,6.65
2022-11-05T07:01:20.452Z,6.7
2022-11-05T07:04:20.333Z,6.69
2022-11-05T07:07:20.348Z,6.79
2022-11-05T07:10:20.365Z,6.88
2022-11-05T07:13:20.384Z,6.92
2022-11-05T07:16:20.418Z,7.06
2022-11-05T07:19:20.401Z,7.14
2022-11-05T07:22:20.414Z,7.27
2022-11-05T07:25:20.428Z,7.34
2022-11-05T07:28:20.439Z,7.39
2022-11-05T07:31:20.459Z,7.45
2022-11-05T07:34:20.614Z,7.44
2022-11-05T07:37:20.478Z,7.56
2022-11-05T07:40:20.495Z,7.59
2022-11-05T07:43:20.506Z,7.68
2022-11-05T07:46:20.522Z,7.68
2022-11-05T07:49:20.538Z,7.73
2022-11-05T07:52:20.668Z,7.8
2022-11-05T07:55:20.553Z,7.79
2022-11-05T07:58:20.569Z,7.84
2022-11-05T08:01:20.631Z,7.84
2022-11-05T08:04:20.586Z,7.94
2022-11-05T08:07:20.601Z,7.98
2022-11-05T08:10:20.633Z,8.05
2022-11-05T08:13:20.615Z,8.1
2022-11-05T08:16:20.639Z,7.94
2022-11-05T08:19:20.631Z,7.96
2022-11-05T08:22:20.645Z,8.05
2022-11-05T08:25:20.652Z,8.14
2022-11-05T08:28:20.771Z,8.13
2022-11-05T08:31:20.679Z,8.05
2022-11-05T08:34:20.674Z,8.18
2022-11-05T08:37:20.682Z,8.08
2022-11-05T08:40:20.694Z,8.2
2022-11-05T08:43:20.713Z,8.2
2022-11-05T08:46:20.737Z,8.05
2022-11-05T08:49:20.717Z,8.29
2022-11-05T08:52:20.733Z,8.15
2022-11-05T08:55:20.739Z,8.1
2022-11-05T08:58:20.960Z,8.2
2022-11-05T09:01:20.847Z,8.18
2022-11-05T09:04:20.792Z,8.12
2022-11-05T09:07:20.778Z,8.06
2022-11-05T09:10:20.787Z,7.98
2022-11-05T09:13:20.972Z,8.02
2022-11-05T09:16:20.801Z,8.2
2022-11-05T09:19:20.812Z,8.18
2022-11-05T09:22:20.843Z,8.01
2022-11-05T09:25:20.833Z,8.11
2022-11-05T09:28:20.839Z,8.05
2022-11-05T09:31:20.850Z,8.08
2022-11-05T09:34:20.860Z,8.22
2022-11-05T09:37:20.864Z,8.08
2022-11-05T09:40:20.991Z,8.22
2022-11-05T09:43:20.883Z,8.12
2022-11-05T09:46:20.891Z,8.1
2022-11-05T09:49:20.902Z,8.13
2022-11-05T09:52:20.919Z,8.21
2022-11-05T09:55:20.913Z,8.19
2022-11-05T09:58:24.500Z,8.06
2022-11-05T10:01:20.978Z,8.08
2022-11-05T10:04:20.943Z,8.22
2022-11-05T10:07:20.965Z,8.21
2022-11-05T10:10:20.986Z,8.17
2022-11-05T10:13:20.969Z,8.21
2022-11-05T10:16:21.011Z,8.16
2022-11-05T10:19:20.992Z,8.17
2022-11-05T10:22:21.007Z,8.22
2022-11-05T10:25:21.007Z,8.12
2022-11-05T10:28:21.013Z,8.16
2022-11-05T10:31:21.021Z,8.09
2022-11-05T10:34:21.139Z,8.04
2022-11-05T10:37:21.045Z,8.02
2022-11-05T10:40:21.065Z,8.03
2022-11-05T10:43:21.056Z,8.09
2022-11-05T10:46:21.060Z,8.06
2022-11-05T10:49:21.065Z,8.22
2022-11-05T10:52:21.111Z,8.21
2022-11-05T10:55:21.083Z,8.16
2022-11-05T10:58:21.097Z,8.11
2022-11-05T11:01:21.163Z,8.07
2022-11-05T11:04:21.107Z,8.15
2022-11-05T11:07:21.128Z,8.11
2022-11-05T11:10:21.257Z,7.97
2022-11-05T11:13:21.132Z,7.99
2022-11-05T11:16:21.141Z,7.98
2022-11-05T11:19:21.150Z,7.9
2022-11-05T11:22:21.178Z,7.94
2022-11-05T11:25:21.168Z,8.05
2022-11-05T11:28:21.200Z,7.98
2022-11-05T11:31:21.180Z,7.85
2022-11-05T11:34:21.184Z,7.8
2022-11-05T11:37:21.203Z,7.78
2022-11-05T11:40:21.199Z,7.7
2022-11-05T11:43:21.204Z,7.69
2022-11-05T11:46:21.244Z,7.68
2022-11-05T11:49:21.214Z,7.69
2022-11-05T11:52:21.229Z,7.74
2022-11-05T11:55:21.231Z,7.68
2022-11-05T11:58:21.235Z,7.7
2022-11-05T12:01:21.278Z,7.72
2022-11-05T12:04:21.271Z,7.71
2022-11-05T12:07:21.267Z,7.69
2022-11-05T12:10:21.263Z,7.75
2022-11-05T12:13:21.266Z,7.73
2022-11-05T12:16:21.270Z,7.72
2022-11-05T12:19:21.283Z,7.78
2022-11-05T12:22:21.318Z,7.8
2022-11-05T12:25:21.299Z,7.8
2022-11-05T12:28:21.294Z,7.77
2022-11-05T12:31:21.301Z,7.75
2022-11-05T12:34:21.305Z,7.72
2022-11-05T12:37:21.320Z,7.61
2022-11-05T12:40:21.341Z,7.58
2022-11-05T12:43:21.319Z,7.47
2022-11-05T12:46:21.320Z,7.56
2022-11-05T12:49:21.325Z,7.68
2022-11-05T12:52:21.338Z,7.54
2022-11-05T12:55:21.336Z,7.41
2022-11-05T12:58:21.356Z,7.39
2022-11-05T13:01:21.388Z,7.34
2022-11-05T13:04:21.341Z,7.34
2022-11-05T13:07:21.367Z,7.3
2022-11-05T13:10:21.344Z,7.38
2022-11-05T13:13:21.341Z,7.44
2022-11-05T13:16:21.373Z,7.47
2022-11-05T13:19:21.346Z,7.46
2022-11-05T13:22:21.355Z,7.52
2022-11-05T13:25:21.356Z,7.53
2022-11-05T13:28:21.357Z,7.55
2022-11-05T13:31:21.384Z,7.49
2022-11-05T13:34:21.402Z,7.5
2022-11-05T13:37:21.395Z,7.44
2022-11-05T13:40:21.407Z,7.45
2022-11-05T13:43:21.436Z,7.45
2022-11-05T13:46:21.448Z,7.39
2022-11-05T13:49:21.473Z,7.38
2022-11-05T13:52:21.580Z,7.41
2022-11-05T13:55:21.524Z,7.41
2022-11-05T13:58:21.538Z,7.41
2022-11-05T14:01:21.635Z,7.43
2022-11-05T14:04:21.575Z,7.42
2022-11-05T14:07:21.608Z,7.41
2022-11-05T14:10:21.647Z,7.32
2022-11-05T14:13:21.646Z,7.3
2022-11-05T14:16:21.673Z,7.29
2022-11-05T14:19:21.685Z,7.33
2022-11-05T14:22:21.719Z,7.27
2022-11-05T14:25:21.732Z,7.28
2022-11-05T14:28:21.779Z,7.29
2022-11-05T14:31:22.109Z,7.25
2022-11-05T14:34:21.809Z,7.26
2022-11-05T14:37:21.851Z,7.24
2022-11-05T14:40:21.858Z,7.24
2022-11-05T14:43:21.892Z,7.27
2022-11-05T14:46:21.927Z,7.24
2022-11-05T14:49:21.931Z,7.25
2022-11-05T14:52:21.958Z,7.26
2022-11-05T14:55:21.966Z,7.21
2022-11-05T14:58:21.993Z,7.22
2022-11-05T15:01:22.082Z,7.19
2022-11-05T15:04:22.108Z,7.11
2022-11-05T15:07:22.074Z,7.07
2022-11-05T15:10:22.083Z,7.05
2022-11-05T15:13:22.108Z,7.05
2022-11-05T15:16:22.127Z,7.04
2022-11-05T15:19:22.153Z,7.04
2022-11-05T15:22:22.215Z,6.99
2022-11-05T15:25:22.217Z,6.98
2022-11-05T15:28:22.242Z,6.98
2022-11-05T15:31:22.262Z,6.97
2022-11-05T15:34:22.293Z,6.97
2022-11-05T15:37:22.345Z,6.96
2022-11-05T15:40:22.374Z,6.95
2022-11-05T15:43:22.365Z,6.92
2022-11-05T15:46:22.389Z,6.9
2022-11-05T15:49:22.408Z,6.85
2022-11-05T15:52:22.440Z,6.85
2022-11-05T15:55:22.446Z,6.81
2022-11-05T15:58:22.485Z,6.8
2022-11-05T16:01:22.576Z,6.74
2022-11-05T16:04:22.500Z,6.76
2022-11-05T16:07:22.527Z,6.71
2022-11-05T16:10:22.528Z,6.62
2022-11-05T16:13:22.552Z,6.62
2022-11-05T16:16:22.592Z,6.59
2022-11-05T16:19:22.591Z,6.56
2022-11-05T16:22:22.625Z,6.58
2022-11-05T16:25:22.637Z,6.58
2022-11-05T16:28:22.667Z,6.57
2022-11-05T16:31:22.686Z,6.6
2022-11-05T16:34:22.729Z,6.63
2022-11-05T16:37:22.726Z,6.63
2022-11-05T16:40:22.733Z,6.61
2022-11-05T16:43:22.732Z,6.57
2022-11-05T16:46:22.739Z,6.63
2022-11-05T16:49:22.747Z,6.63
2022-11-05T16:52:22.792Z,6.67
2022-11-05T16:55:22.773Z,6.68
2022-11-05T16:58:22.791Z,6.7
2022-11-05T17:01:22.938Z,6.68
2022-11-05T17:04:22.832Z,6.73
2022-11-05T17:07:22.847Z,6.7
2022-11-05T17:10:22.871Z,6.73
2022-11-05T17:13:22.861Z,6.72
2022-11-05T17:16:22.879Z,6.74
2022-11-05T17:19:22.893Z,6.73
2022-11-05T17:22:22.923Z,6.72
2022-11-05T17:25:22.927Z,6.7
2022-11-05T17:28:22.963Z,6.7
2022-11-05T17:31:22.955Z,6.7
2022-11-05T17:34:22.964Z,6.7
2022-11-05T17:37:22.973Z,6.7
2022-11-05T17:40:22.990Z,6.69
2022-11-05T17:43:22.977Z,6.64
2022-11-05T17:46:23.020Z,6.64
2022-11-05T17:49:22.998Z,6.64
2022-11-05T17:52:23.026Z,6.64
2022-11-05T17:55:23.035Z,6.65
2022-11-05T17:58:23.044Z,6.7
2022-11-05T18:01:23.223Z,6.68
2022-11-05T18:04:23.101Z,6.68
2022-11-05T18:07:23.100Z,6.67
2022-11-05T18:10:23.102Z,6.67
2022-11-05T18:13:23.118Z,6.64
2022-11-05T18:16:23.133Z,6.66
2022-11-05T18:19:23.143Z,6.67
2022-11-05T18:22:23.280Z,6.66
2022-11-05T18:25:23.168Z,6.65
2022-11-05T18:28:23.182Z,6.62
2022-11-05T18:31:23.191Z,6.62
2022-11-05T18:34:23.197Z,6.59
2022-11-05T18:37:23.227Z,6.55
2022-11-05T18:40:23.257Z,6.54
2022-11-05T18:43:23.241Z,6.56
2022-11-05T18:46:43.459Z,6.56
2022-11-05T18:49:23.269Z,6.56
2022-11-05T18:52:23.301Z,6.55
2022-11-05T18:55:23.318Z,6.51
2022-11-05T18:58:23.364Z,6.56
2022-11-05T19:01:23.425Z,6.56
2022-11-05T19:04:23.369Z,6.55
2022-11-05T19:07:23.404Z,6.54
2022-11-05T19:10:23.412Z,6.55
2022-11-05T19:13:23.428Z,6.54
2022-11-05T19:16:23.461Z,6.53
2022-11-05T19:19:23.452Z,6.51
2022-11-05T19:22:23.472Z,6.54
2022-11-05T19:25:23.467Z,6.52
2022-11-05T19:28:23.474Z,6.51
2022-11-05T19:31:23.491Z,6.5
2022-11-05T19:34:23.620Z,6.52
2022-11-05T19:37:23.539Z,6.51
2022-11-05T19:40:23.545Z,6.5
2022-11-05T19:43:23.559Z,6.53
2022-11-05T19:46:23.572Z,6.52
2022-11-05T19:49:23.583Z,6.5
2022-11-05T19:52:23.637Z,6.5
2022-11-05T19:55:23.621Z,6.49
2022-11-05T19:58:23.632Z,6.53
2022-11-05T20:01:23.760Z,6.51
2022-11-05T20:04:23.674Z,6.53
2022-11-05T20:07:23.690Z,6.51
2022-11-05T20:10:23.718Z,6.5
2022-11-05T20:13:23.791Z,6.48
2022-11-05T20:16:23.717Z,6.48
2022-11-05T20:19:23.725Z,6.47
2022-11-05T20:22:23.750Z,6.46
2022-11-05T20:25:23.752Z,6.46
2022-11-05T20:28:23.787Z,6.46
2022-11-05T20:31:23.793Z,6.45
2022-11-05T20:34:23.803Z,6.44
2022-11-05T20:37:23.832Z,6.44
2022-11-05T20:40:23.846Z,6.43
2022-11-05T20:43:27.528Z,6.42
2022-11-05T20:46:23.994Z,6.37
2022-11-05T20:49:25.492Z,6.36
2022-11-05T20:52:23.928Z,6.37
2022-11-05T20:55:23.934Z,6.34
2022-11-05T20:58:23.947Z,6.33
2022-11-05T21:01:24.095Z,6.33
2022-11-05T21:04:24.098Z,6.33
2022-11-05T21:07:24.009Z,6.32
2022-11-05T21:10:24.009Z,6.28
2022-11-05T21:13:24.022Z,6.28
2022-11-05T21:16:24.027Z,6.27
2022-11-05T21:19:24.096Z,6.27
2022-11-05T21:22:24.091Z,6.26
2022-11-05T21:25:24.069Z,6.26
2022-11-05T21:28:24.080Z,6.26
2022-11-05T21:31:24.108Z,6.24
2022-11-05T21:34:24.111Z,6.24
2022-11-05T21:37:24.139Z,6.24
2022-11-05T21:40:24.170Z,6.21
2022-11-05T21:43:24.157Z,6.24
2022-11-05T21:46:24.180Z,6.23
2022-11-05T21:49:24.201Z,6.25
2022-11-05T21:52:24.225Z,6.21
2022-11-05T21:55:24.229Z,6.25
2022-11-05T21:58:24.274Z,6.21
2022-11-05T22:01:24.328Z,6.22
2022-11-05T22:04:24.275Z,6.23
2022-11-05T22:07:24.296Z,6.26
2022-11-05T22:10:24.293Z,6.23
2022-11-05T22:13:24.308Z,6.24
2022-11-05T22:16:24.453Z,6.24
2022-11-05T22:19:24.345Z,6.25
2022-11-05T22:22:24.376Z,6.26
2022-11-05T22:25:24.383Z,6.27
2022-11-05T22:28:24.394Z,6.24
2022-11-05T22:31:24.408Z,6.25
2022-11-05T22:34:24.456Z,6.26
2022-11-05T22:37:24.448Z,6.25
2022-11-05T22:40:24.458Z,6.29
2022-11-05T22:43:24.478Z,6.3
2022-11-05T22:46:24.496Z,6.31
2022-11-05T22:49:24.512Z,6.3
2022-11-05T22:52:24.562Z,6.31
2022-11-05T22:55:24.545Z,6.31
2022-11-05T22:58:24.555Z,6.32
2022-11-05T23:01:24.693Z,6.33
2022-11-05T23:04:24.572Z,6.31
2022-11-05T23:07:27.219Z,6.32
2022-11-05T23:10:24.633Z,6.34
2022-11-05T23:13:24.624Z,6.34
2022-11-05T23:16:24.644Z,6.35
2022-11-05T23:19:24.661Z,6.36
2022-11-05T23:22:24.680Z,6.36
2022-11-05T23:25:24.685Z,6.34
2022-11-05T23:28:24.732Z,6.36
2022-11-05T23:31:24.725Z,6.34
2022-11-05T23:34:24.741Z,6.34
2022-11-05T23:37:24.770Z,6.36
2022-11-05T23:40:24.779Z,6.37
2022-11-05T23:43:24.793Z,6.38
2022-11-05T23:46:24.967Z,6.43
2022-11-05T23:49:24.808Z,6.47
2022-11-05T23:52:24.821Z,6.49
2022-11-05T23:55:24.814Z,6.48
2022-11-05T23:58:24.817Z,6.53
